sensor_id;sensor_type;location;lat;lon;timestamp;temperature;humidity
70271;SHT31;57680;54.292;18.598;2023-02-01T00:01:16;2.99;90.05
70271;SHT31;57680;54.292;18.598;2023-02-01T00:03:42;3.06;90.03
70271;SHT31;57680;54.292;18.598;2023-02-01T00:06:08;3.19;89.31
70271;SHT31;57680;54.292;18.598;2023-02-01T00:08:33;2.98;90.28
70271;SHT31;57680;54.292;18.598;2023-02-01T00:11:07;3.03;90.32
70271;SHT31;57680;54.292;18.598;2023-02-01T00:13:35;3.15;90.38
70271;SHT31;57680;54.292;18.598;2023-02-01T00:16:14;3.16;90.20
70271;SHT31;57680;54.292;18.598;2023-02-01T00:18:42;3.20;90.03
70271;SHT31;57680;54.292;18.598;2023-02-01T00:21:07;3.16;90.31
70271;SHT31;57680;54.292;18.598;2023-02-01T00:23:35;3.19;90.11
70271;SHT31;57680;54.292;18.598;2023-02-01T00:26:02;3.09;90.90
70271;SHT31;57680;54.292;18.598;2023-02-01T00:28:28;3.15;90.68
70271;SHT31;57680;54.292;18.598;2023-02-01T00:30:58;3.23;90.74
70271;SHT31;57680;54.292;18.598;2023-02-01T00:33:24;3.03;91.03
70271;SHT31;57680;54.292;18.598;2023-02-01T00:35:50;3.05;90.75
70271;SHT31;57680;54.292;18.598;2023-02-01T00:38:15;3.03;90.69
70271;SHT31;57680;54.292;18.598;2023-02-01T00:40:41;2.88;90.63
70271;SHT31;57680;54.292;18.598;2023-02-01T00:43:06;2.87;90.81
70271;SHT31;57680;54.292;18.598;2023-02-01T00:45:31;2.77;91.89
70271;SHT31;57680;54.292;18.598;2023-02-01T00:47:57;2.65;91.73
70271;SHT31;57680;54.292;18.598;2023-02-01T00:50:22;2.58;91.94
70271;SHT31;57680;54.292;18.598;2023-02-01T00:52:47;2.60;92.32
70271;SHT31;57680;54.292;18.598;2023-02-01T00:55:13;2.52;92.30
70271;SHT31;57680;54.292;18.598;2023-02-01T00:57:38;2.47;92.28
70271;SHT31;57680;54.292;18.598;2023-02-01T01:00:04;2.48;92.72
70271;SHT31;57680;54.292;18.598;2023-02-01T01:02:30;2.55;92.84
70271;SHT31;57680;54.292;18.598;2023-02-01T01:04:55;2.74;91.78
70271;SHT31;57680;54.292;18.598;2023-02-01T01:07:21;2.89;91.09
70271;SHT31;57680;54.292;18.598;2023-02-01T01:09:46;2.87;90.65
70271;SHT31;57680;54.292;18.598;2023-02-01T01:12:12;2.85;90.69
70271;SHT31;57680;54.292;18.598;2023-02-01T01:14:37;2.87;90.73
70271;SHT31;57680;54.292;18.598;2023-02-01T01:17:03;3.06;90.92
70271;SHT31;57680;54.292;18.598;2023-02-01T01:19:28;3.03;90.62
70271;SHT31;57680;54.292;18.598;2023-02-01T01:21:53;3.01;90.32
70271;SHT31;57680;54.292;18.598;2023-02-01T01:24:19;2.89;91.02
70271;SHT31;57680;54.292;18.598;2023-02-01T01:26:44;2.84;91.54
70271;SHT31;57680;54.292;18.598;2023-02-01T01:29:10;2.72;91.98
70271;SHT31;57680;54.292;18.598;2023-02-01T01:31:36;2.77;91.70
70271;SHT31;57680;54.292;18.598;2023-02-01T01:34:01;2.71;92.17
70271;SHT31;57680;54.292;18.598;2023-02-01T01:36:28;2.65;92.22
70271;SHT31;57680;54.292;18.598;2023-02-01T01:38:53;2.81;91.43
70271;SHT31;57680;54.292;18.598;2023-02-01T01:41:22;2.85;91.20
70271;SHT31;57680;54.292;18.598;2023-02-01T01:43:57;2.85;91.75
70271;SHT31;57680;54.292;18.598;2023-02-01T01:46:35;2.89;92.24
70271;SHT31;57680;54.292;18.598;2023-02-01T01:49:14;3.02;90.98
70271;SHT31;57680;54.292;18.598;2023-02-01T01:51:45;2.92;90.68
70271;SHT31;57680;54.292;18.598;2023-02-01T01:54:18;2.88;90.56
70271;SHT31;57680;54.292;18.598;2023-02-01T01:56:52;2.82;90.98
70271;SHT31;57680;54.292;18.598;2023-02-01T01:59:20;2.80;90.77
70271;SHT31;57680;54.292;18.598;2023-02-01T02:01:46;2.74;91.03
70271;SHT31;57680;54.292;18.598;2023-02-01T02:04:12;2.74;90.66
70271;SHT31;57680;54.292;18.598;2023-02-01T02:06:52;2.88;90.05
70271;SHT31;57680;54.292;18.598;2023-02-01T02:09:21;3.01;89.31
70271;SHT31;57680;54.292;18.598;2023-02-01T02:11:46;2.93;89.56
70271;SHT31;57680;54.292;18.598;2023-02-01T02:14:14;2.96;89.14
70271;SHT31;57680;54.292;18.598;2023-02-01T02:19:44;2.98;89.31
70271;SHT31;57680;54.292;18.598;2023-02-01T02:34:09;2.72;90.94
70271;SHT31;57680;54.292;18.598;2023-02-01T02:36:51;2.71;91.34
70271;SHT31;57680;54.292;18.598;2023-02-01T02:42:47;2.36;92.35
70271;SHT31;57680;54.292;18.598;2023-02-01T02:45:41;2.33;91.89
70271;SHT31;57680;54.292;18.598;2023-02-01T02:48:43;2.24;92.76
70271;SHT31;57680;54.292;18.598;2023-02-01T02:51:14;2.09;92.97
70271;SHT31;57680;54.292;18.598;2023-02-01T02:54:15;2.06;93.40
70271;SHT31;57680;54.292;18.598;2023-02-01T02:57:05;1.93;93.50
70271;SHT31;57680;54.292;18.598;2023-02-01T02:59:50;1.83;93.19
70271;SHT31;57680;54.292;18.598;2023-02-01T03:02:35;1.78;94.06
70271;SHT31;57680;54.292;18.598;2023-02-01T03:05:19;1.79;93.60
70271;SHT31;57680;54.292;18.598;2023-02-01T03:10:34;1.81;93.56
70271;SHT31;57680;54.292;18.598;2023-02-01T03:13:04;1.98;92.90
70271;SHT31;57680;54.292;18.598;2023-02-01T03:24:51;1.82;93.33
70271;SHT31;57680;54.292;18.598;2023-02-01T03:32:40;2.24;93.03
70271;SHT31;57680;54.292;18.598;2023-02-01T03:35:42;2.24;92.94
70271;SHT31;57680;54.292;18.598;2023-02-01T03:38:38;2.29;93.35
70271;SHT31;57680;54.292;18.598;2023-02-01T03:41:19;2.40;93.02
70271;SHT31;57680;54.292;18.598;2023-02-01T03:46:45;2.60;92.03
70271;SHT31;57680;54.292;18.598;2023-02-01T03:49:17;2.52;92.82
70271;SHT31;57680;54.292;18.598;2023-02-01T03:51:44;2.57;93.05
70271;SHT31;57680;54.292;18.598;2023-02-01T03:54:13;2.48;93.17
70271;SHT31;57680;54.292;18.598;2023-02-01T03:56:42;2.44;93.45
70271;SHT31;57680;54.292;18.598;2023-02-01T03:59:10;2.38;93.39
70271;SHT31;57680;54.292;18.598;2023-02-01T04:01:35;2.30;94.06
70271;SHT31;57680;54.292;18.598;2023-02-01T04:04:01;2.31;93.87
70271;SHT31;57680;54.292;18.598;2023-02-01T04:06:26;2.48;92.95
70271;SHT31;57680;54.292;18.598;2023-02-01T04:08:52;2.38;93.31
70271;SHT31;57680;54.292;18.598;2023-02-01T04:11:17;2.47;93.06
70271;SHT31;57680;54.292;18.598;2023-02-01T04:13:43;2.47;92.44
70271;SHT31;57680;54.292;18.598;2023-02-01T04:16:09;2.66;91.64
70271;SHT31;57680;54.292;18.598;2023-02-01T04:18:35;2.58;92.16
70271;SHT31;57680;54.292;18.598;2023-02-01T04:21:01;2.61;92.01
70271;SHT31;57680;54.292;18.598;2023-02-01T04:23:27;2.68;92.22
70271;SHT31;57680;54.292;18.598;2023-02-01T04:25:53;2.65;92.23
70271;SHT31;57680;54.292;18.598;2023-02-01T04:28:18;2.68;92.25
70271;SHT31;57680;54.292;18.598;2023-02-01T04:30:43;2.82;91.58
70271;SHT31;57680;54.292;18.598;2023-02-01T04:33:10;2.89;91.17
70271;SHT31;57680;54.292;18.598;2023-02-01T04:35:39;2.99;90.50
70271;SHT31;57680;54.292;18.598;2023-02-01T04:38:04;2.92;90.67
70271;SHT31;57680;54.292;18.598;2023-02-01T04:40:30;2.89;90.69
70271;SHT31;57680;54.292;18.598;2023-02-01T04:42:55;2.99;89.85
70271;SHT31;57680;54.292;18.598;2023-02-01T04:45:21;2.93;89.78
70271;SHT31;57680;54.292;18.598;2023-02-01T04:47:46;2.93;89.63
70271;SHT31;57680;54.292;18.598;2023-02-01T04:50:13;2.99;89.31
70271;SHT31;57680;54.292;18.598;2023-02-01T04:52:38;2.89;89.64
70271;SHT31;57680;54.292;18.598;2023-02-01T04:55:04;2.88;89.74
70271;SHT31;57680;54.292;18.598;2023-02-01T04:57:30;2.87;89.73
70271;SHT31;57680;54.292;18.598;2023-02-01T04:59:56;2.89;89.38
70271;SHT31;57680;54.292;18.598;2023-02-01T05:02:21;2.96;89.01
70271;SHT31;57680;54.292;18.598;2023-02-01T05:04:50;2.93;89.62
70271;SHT31;57680;54.292;18.598;2023-02-01T05:07:15;2.87;89.73
70271;SHT31;57680;54.292;18.598;2023-02-01T05:09:41;2.80;89.89
70271;SHT31;57680;54.292;18.598;2023-02-01T05:12:08;2.84;90.37
70271;SHT31;57680;54.292;18.598;2023-02-01T05:14:53;2.81;90.84
70271;SHT31;57680;54.292;18.598;2023-02-01T05:17:18;2.80;91.11
70271;SHT31;57680;54.292;18.598;2023-02-01T05:19:44;2.87;90.93
70271;SHT31;57680;54.292;18.598;2023-02-01T05:22:09;2.95;91.26
70271;SHT31;57680;54.292;18.598;2023-02-01T05:24:34;2.91;91.34
70271;SHT31;57680;54.292;18.598;2023-02-01T05:27:00;2.70;92.20
70271;SHT31;57680;54.292;18.598;2023-02-01T05:29:25;2.65;92.51
70271;SHT31;57680;54.292;18.598;2023-02-01T05:31:51;2.64;92.38
70271;SHT31;57680;54.292;18.598;2023-02-01T05:34:16;2.62;92.65
70271;SHT31;57680;54.292;18.598;2023-02-01T05:36:42;2.54;93.17
70271;SHT31;57680;54.292;18.598;2023-02-01T05:39:08;2.50;93.00
70271;SHT31;57680;54.292;18.598;2023-02-01T05:41:33;2.57;93.07
70271;SHT31;57680;54.292;18.598;2023-02-01T05:43:59;2.58;93.47
70271;SHT31;57680;54.292;18.598;2023-02-01T05:46:25;2.66;93.24
70271;SHT31;57680;54.292;18.598;2023-02-01T05:48:50;2.81;92.50
70271;SHT31;57680;54.292;18.598;2023-02-01T05:51:15;2.98;92.32
70271;SHT31;57680;54.292;18.598;2023-02-01T05:53:41;2.91;92.04
70271;SHT31;57680;54.292;18.598;2023-02-01T05:56:06;3.06;91.78
70271;SHT31;57680;54.292;18.598;2023-02-01T05:58:32;3.02;91.39
70271;SHT31;57680;54.292;18.598;2023-02-01T06:01:02;3.11;91.59
70271;SHT31;57680;54.292;18.598;2023-02-01T06:03:27;3.06;91.91
70271;SHT31;57680;54.292;18.598;2023-02-01T06:05:53;3.09;91.49
70271;SHT31;57680;54.292;18.598;2023-02-01T06:08:18;3.15;91.50
70271;SHT31;57680;54.292;18.598;2023-02-01T06:10:44;3.12;91.00
70271;SHT31;57680;54.292;18.598;2023-02-01T06:13:10;3.02;90.90
70271;SHT31;57680;54.292;18.598;2023-02-01T06:15:35;3.11;90.75
70271;SHT31;57680;54.292;18.598;2023-02-01T06:18:03;2.98;90.72
70271;SHT31;57680;54.292;18.598;2023-02-01T06:20:28;2.87;91.74
70271;SHT31;57680;54.292;18.598;2023-02-01T06:22:54;2.84;91.85
70271;SHT31;57680;54.292;18.598;2023-02-01T06:25:19;2.80;91.68
70271;SHT31;57680;54.292;18.598;2023-02-01T06:27:46;2.81;91.36
70271;SHT31;57680;54.292;18.598;2023-02-01T06:30:12;2.74;91.29
70271;SHT31;57680;54.292;18.598;2023-02-01T06:32:41;2.68;91.34
70271;SHT31;57680;54.292;18.598;2023-02-01T06:35:08;2.60;91.85
70271;SHT31;57680;54.292;18.598;2023-02-01T06:37:36;2.60;92.21
70271;SHT31;57680;54.292;18.598;2023-02-01T06:40:02;2.62;92.30
70271;SHT31;57680;54.292;18.598;2023-02-01T06:42:28;2.78;91.70
70271;SHT31;57680;54.292;18.598;2023-02-01T06:44:53;2.68;91.91
70271;SHT31;57680;54.292;18.598;2023-02-01T06:47:18;2.77;91.86
70271;SHT31;57680;54.292;18.598;2023-02-01T06:49:45;2.84;92.00
70271;SHT31;57680;54.292;18.598;2023-02-01T06:52:10;2.96;91.90
70271;SHT31;57680;54.292;18.598;2023-02-01T06:54:36;3.03;91.77
70271;SHT31;57680;54.292;18.598;2023-02-01T06:57:03;3.15;91.53
70271;SHT31;57680;54.292;18.598;2023-02-01T06:59:28;3.19;91.69
70271;SHT31;57680;54.292;18.598;2023-02-01T07:01:53;3.19;90.92
70271;SHT31;57680;54.292;18.598;2023-02-01T07:04:19;3.12;91.16
70271;SHT31;57680;54.292;18.598;2023-02-01T07:06:45;3.05;91.80
70271;SHT31;57680;54.292;18.598;2023-02-01T07:09:10;2.92;92.43
70271;SHT31;57680;54.292;18.598;2023-02-01T07:11:37;2.92;92.25
70271;SHT31;57680;54.292;18.598;2023-02-01T07:14:06;2.88;92.69
70271;SHT31;57680;54.292;18.598;2023-02-01T07:16:31;2.98;91.99
70271;SHT31;57680;54.292;18.598;2023-02-01T07:18:57;3.11;91.62
70271;SHT31;57680;54.292;18.598;2023-02-01T07:21:22;3.01;91.51
70271;SHT31;57680;54.292;18.598;2023-02-01T07:23:48;3.02;91.86
70271;SHT31;57680;54.292;18.598;2023-02-01T07:26:14;3.05;91.33
70271;SHT31;57680;54.292;18.598;2023-02-01T07:28:41;3.26;90.49
70271;SHT31;57680;54.292;18.598;2023-02-01T07:31:12;3.11;91.09
70271;SHT31;57680;54.292;18.598;2023-02-01T07:33:41;3.32;90.42
70271;SHT31;57680;54.292;18.598;2023-02-01T07:36:08;3.27;90.44
70271;SHT31;57680;54.292;18.598;2023-02-01T07:38:35;3.40;89.74
70271;SHT31;57680;54.292;18.598;2023-02-01T07:41:03;3.46;89.28
70271;SHT31;57680;54.292;18.598;2023-02-01T07:43:29;3.47;89.29
70271;SHT31;57680;54.292;18.598;2023-02-01T07:45:55;3.50;89.27
70271;SHT31;57680;54.292;18.598;2023-02-01T07:48:22;3.66;88.70
70271;SHT31;57680;54.292;18.598;2023-02-01T07:50:48;3.78;87.88
70271;SHT31;57680;54.292;18.598;2023-02-01T07:53:13;3.92;87.63
70271;SHT31;57680;54.292;18.598;2023-02-01T07:55:39;3.98;87.41
70271;SHT31;57680;54.292;18.598;2023-02-01T07:58:05;4.08;88.32
70271;SHT31;57680;54.292;18.598;2023-02-01T08:00:31;3.98;87.07
70271;SHT31;57680;54.292;18.598;2023-02-01T08:03:15;4.05;86.40
70271;SHT31;57680;54.292;18.598;2023-02-01T08:05:40;4.05;86.79
70271;SHT31;57680;54.292;18.598;2023-02-01T08:08:06;4.09;86.62
70271;SHT31;57680;54.292;18.598;2023-02-01T08:10:32;4.13;86.71
70271;SHT31;57680;54.292;18.598;2023-02-01T08:12:58;4.22;86.82
70271;SHT31;57680;54.292;18.598;2023-02-01T08:15:25;4.16;86.96
70271;SHT31;57680;54.292;18.598;2023-02-01T08:17:51;4.43;86.28
70271;SHT31;57680;54.292;18.598;2023-02-01T08:20:18;4.52;84.82
70271;SHT31;57680;54.292;18.598;2023-02-01T08:22:44;4.60;84.94
70271;SHT31;57680;54.292;18.598;2023-02-01T08:25:10;4.67;84.54
70271;SHT31;57680;54.292;18.598;2023-02-01T08:27:36;4.69;83.48
70271;SHT31;57680;54.292;18.598;2023-02-01T08:30:03;4.60;83.70
70271;SHT31;57680;54.292;18.598;2023-02-01T08:32:29;4.45;83.25
70271;SHT31;57680;54.292;18.598;2023-02-01T08:34:55;4.46;83.69
70271;SHT31;57680;54.292;18.598;2023-02-01T08:37:20;4.67;83.78
70271;SHT31;57680;54.292;18.598;2023-02-01T08:39:47;4.72;83.74
70271;SHT31;57680;54.292;18.598;2023-02-01T08:42:15;4.84;83.28
70271;SHT31;57680;54.292;18.598;2023-02-01T08:44:59;4.91;82.85
70271;SHT31;57680;54.292;18.598;2023-02-01T08:47:25;5.05;83.11
70271;SHT31;57680;54.292;18.598;2023-02-01T08:49:50;5.04;82.88
70271;SHT31;57680;54.292;18.598;2023-02-01T08:52:16;5.11;82.47
70271;SHT31;57680;54.292;18.598;2023-02-01T08:54:42;5.17;82.52
70271;SHT31;57680;54.292;18.598;2023-02-01T08:57:07;5.17;82.31
70271;SHT31;57680;54.292;18.598;2023-02-01T08:59:34;5.10;82.46
70271;SHT31;57680;54.292;18.598;2023-02-01T09:02:00;5.22;82.20
70271;SHT31;57680;54.292;18.598;2023-02-01T09:04:25;5.18;82.32
70271;SHT31;57680;54.292;18.598;2023-02-01T09:06:51;5.20;82.72
70271;SHT31;57680;54.292;18.598;2023-02-01T09:09:16;5.30;81.45
70271;SHT31;57680;54.292;18.598;2023-02-01T09:11:42;5.18;80.86
70271;SHT31;57680;54.292;18.598;2023-02-01T09:14:07;5.21;81.09
70271;SHT31;57680;54.292;18.598;2023-02-01T09:16:33;5.34;80.47
70271;SHT31;57680;54.292;18.598;2023-02-01T09:18:58;5.34;80.17
70271;SHT31;57680;54.292;18.598;2023-02-01T09:21:24;5.35;79.64
70271;SHT31;57680;54.292;18.598;2023-02-01T09:23:50;5.34;80.58
70271;SHT31;57680;54.292;18.598;2023-02-01T09:26:16;5.34;80.75
70271;SHT31;57680;54.292;18.598;2023-02-01T09:28:41;5.34;80.04
70271;SHT31;57680;54.292;18.598;2023-02-01T09:31:07;5.42;79.88
70271;SHT31;57680;54.292;18.598;2023-02-01T09:33:32;5.60;79.91
70271;SHT31;57680;54.292;18.598;2023-02-01T09:35:59;5.49;78.78
70271;SHT31;57680;54.292;18.598;2023-02-01T09:38:25;5.63;79.20
70271;SHT31;57680;54.292;18.598;2023-02-01T09:40:52;5.60;78.53
70271;SHT31;57680;54.292;18.598;2023-02-01T09:46:27;5.55;79.20
70271;SHT31;57680;54.292;18.598;2023-02-01T09:48:56;5.65;79.75
70271;SHT31;57680;54.292;18.598;2023-02-01T09:51:30;5.60;79.06
70271;SHT31;57680;54.292;18.598;2023-02-01T09:54:11;5.49;79.20
70271;SHT31;57680;54.292;18.598;2023-02-01T09:56:46;5.56;79.90
70271;SHT31;57680;54.292;18.598;2023-02-01T10:01:40;5.59;79.08
70271;SHT31;57680;54.292;18.598;2023-02-01T10:04:12;5.59;79.69
70271;SHT31;57680;54.292;18.598;2023-02-01T10:13:02;5.22;79.74
70271;SHT31;57680;54.292;18.598;2023-02-01T10:18:35;4.94;80.91
70271;SHT31;57680;54.292;18.598;2023-02-01T10:24:02;4.73;80.73
70271;SHT31;57680;54.292;18.598;2023-02-01T10:26:41;4.60;82.71
70271;SHT31;57680;54.292;18.598;2023-02-01T10:29:15;4.49;83.92
70271;SHT31;57680;54.292;18.598;2023-02-01T10:31:42;4.38;85.05
70271;SHT31;57680;54.292;18.598;2023-02-01T10:34:17;4.49;85.12
70271;SHT31;57680;54.292;18.598;2023-02-01T10:37:00;4.54;85.25
70271;SHT31;57680;54.292;18.598;2023-02-01T10:39:26;4.57;85.51
70271;SHT31;57680;54.292;18.598;2023-02-01T10:41:51;4.70;85.60
70271;SHT31;57680;54.292;18.598;2023-02-01T10:44:21;4.69;85.11
70271;SHT31;57680;54.292;18.598;2023-02-01T10:46:48;4.66;85.18
70271;SHT31;57680;54.292;18.598;2023-02-01T10:49:18;4.69;85.66
70271;SHT31;57680;54.292;18.598;2023-02-01T10:54:38;5.05;83.90
70271;SHT31;57680;54.292;18.598;2023-02-01T10:57:29;5.45;83.54
70271;SHT31;57680;54.292;18.598;2023-02-01T10:59:56;5.67;82.96
70271;SHT31;57680;54.292;18.598;2023-02-01T11:02:29;5.70;81.74
70271;SHT31;57680;54.292;18.598;2023-02-01T11:05:05;5.62;81.84
70271;SHT31;57680;54.292;18.598;2023-02-01T11:07:34;5.52;81.90
70271;SHT31;57680;54.292;18.598;2023-02-01T11:10:00;5.55;82.24
70271;SHT31;57680;54.292;18.598;2023-02-01T11:12:35;5.70;82.93
70271;SHT31;57680;54.292;18.598;2023-02-01T11:15:21;5.87;81.78
70271;SHT31;57680;54.292;18.598;2023-02-01T11:17:48;5.92;80.54
70271;SHT31;57680;54.292;18.598;2023-02-01T11:20:19;5.77;81.15
70271;SHT31;57680;54.292;18.598;2023-02-01T11:22:53;5.58;82.85
70271;SHT31;57680;54.292;18.598;2023-02-01T11:25:19;5.42;83.16
70271;SHT31;57680;54.292;18.598;2023-02-01T11:27:47;5.21;84.46
70271;SHT31;57680;54.292;18.598;2023-02-01T11:30:21;5.07;84.53
70271;SHT31;57680;54.292;18.598;2023-02-01T11:32:49;4.93;84.51
70271;SHT31;57680;54.292;18.598;2023-02-01T11:35:19;4.62;85.98
70271;SHT31;57680;54.292;18.598;2023-02-01T11:37:50;4.49;86.60
70271;SHT31;57680;54.292;18.598;2023-02-01T11:43:07;4.41;87.65
70271;SHT31;57680;54.292;18.598;2023-02-01T11:45:34;4.66;87.43
70271;SHT31;57680;54.292;18.598;2023-02-01T11:48:08;4.87;87.39
70271;SHT31;57680;54.292;18.598;2023-02-01T11:56:54;5.05;87.08
70271;SHT31;57680;54.292;18.598;2023-02-01T12:08:10;5.77;83.21
70271;SHT31;57680;54.292;18.598;2023-02-01T12:24:33;4.98;85.60
70271;SHT31;57680;54.292;18.598;2023-02-01T12:27:46;4.64;86.48
70271;SHT31;57680;54.292;18.598;2023-02-01T12:33:05;4.08;89.01
70271;SHT31;57680;54.292;18.598;2023-02-01T12:46:21;2.92;91.67
70271;SHT31;57680;54.292;18.598;2023-02-01T12:49:11;2.70;90.99
70271;SHT31;57680;54.292;18.598;2023-02-01T12:51:40;2.52;91.79
70271;SHT31;57680;54.292;18.598;2023-02-01T12:54:20;2.42;91.70
70271;SHT31;57680;54.292;18.598;2023-02-01T12:56:52;2.26;92.74
70271;SHT31;57680;54.292;18.598;2023-02-01T12:59:37;2.20;93.54
70271;SHT31;57680;54.292;18.598;2023-02-01T13:07:43;2.37;92.95
70271;SHT31;57680;54.292;18.598;2023-02-01T13:10:40;2.44;93.46
70271;SHT31;57680;54.292;18.598;2023-02-01T13:15:47;2.80;92.68
70271;SHT31;57680;54.292;18.598;2023-02-01T13:18:20;2.98;93.19
70271;SHT31;57680;54.292;18.598;2023-02-01T13:21:08;3.22;92.27
70271;SHT31;57680;54.292;18.598;2023-02-01T13:23:40;3.26;91.39
70271;SHT31;57680;54.292;18.598;2023-02-01T13:26:07;3.37;91.62
70271;SHT31;57680;54.292;18.598;2023-02-01T13:42:23;3.78;90.03
70271;SHT31;57680;54.292;18.598;2023-02-01T13:44:56;3.99;89.37
70271;SHT31;57680;54.292;18.598;2023-02-01T13:47:34;4.08;88.84
70271;SHT31;57680;54.292;18.598;2023-02-01T13:50:25;4.13;88.49
70271;SHT31;57680;54.292;18.598;2023-02-01T13:55:43;4.06;86.30
70271;SHT31;57680;54.292;18.598;2023-02-01T14:16:38;3.80;87.43
70271;SHT31;57680;54.292;18.598;2023-02-01T14:19:08;3.71;88.02
70271;SHT31;57680;54.292;18.598;2023-02-01T14:21:46;3.74;87.56
70271;SHT31;57680;54.292;18.598;2023-02-01T14:24:22;3.77;87.54
70271;SHT31;57680;54.292;18.598;2023-02-01T14:26:52;3.84;87.44
70271;SHT31;57680;54.292;18.598;2023-02-01T14:29:33;3.88;87.28
70271;SHT31;57680;54.292;18.598;2023-02-01T14:32:20;3.77;88.13
70271;SHT31;57680;54.292;18.598;2023-02-01T14:44:49;3.71;88.59
70271;SHT31;57680;54.292;18.598;2023-02-01T14:52:39;3.64;89.79
70271;SHT31;57680;54.292;18.598;2023-02-01T14:55:35;3.63;89.70
70271;SHT31;57680;54.292;18.598;2023-02-01T14:58:05;3.46;90.10
70271;SHT31;57680;54.292;18.598;2023-02-01T15:00:32;3.43;90.36
70271;SHT31;57680;54.292;18.598;2023-02-01T15:05:59;3.46;90.75
70271;SHT31;57680;54.292;18.598;2023-02-01T15:08:32;3.61;90.25
70271;SHT31;57680;54.292;18.598;2023-02-01T15:11:02;3.59;89.91
70271;SHT31;57680;54.292;18.598;2023-02-01T15:13:31;3.50;90.62
70271;SHT31;57680;54.292;18.598;2023-02-01T15:16:07;3.44;90.43
70271;SHT31;57680;54.292;18.598;2023-02-01T15:18:34;3.30;91.00
70271;SHT31;57680;54.292;18.598;2023-02-01T15:21:02;3.30;91.29
70271;SHT31;57680;54.292;18.598;2023-02-01T15:23:28;3.27;91.02
70271;SHT31;57680;54.292;18.598;2023-02-01T15:25:54;3.03;92.36
70271;SHT31;57680;54.292;18.598;2023-02-01T15:28:20;3.01;92.41
70271;SHT31;57680;54.292;18.598;2023-02-01T15:30:58;2.96;91.96
70271;SHT31;57680;54.292;18.598;2023-02-01T15:33:24;2.91;91.29
70271;SHT31;57680;54.292;18.598;2023-02-01T15:36:11;2.75;91.74
70271;SHT31;57680;54.292;18.598;2023-02-01T15:38:44;2.62;91.83
70271;SHT31;57680;54.292;18.598;2023-02-01T15:41:21;2.48;92.83
70271;SHT31;57680;54.292;18.598;2023-02-01T15:46:38;2.38;93.23
70271;SHT31;57680;54.292;18.598;2023-02-01T15:49:05;2.29;92.74
70271;SHT31;57680;54.292;18.598;2023-02-01T15:51:44;2.31;92.97
70271;SHT31;57680;54.292;18.598;2023-02-01T15:54:20;2.21;93.19
70271;SHT31;57680;54.292;18.598;2023-02-01T15:56:53;2.19;93.56
70271;SHT31;57680;54.292;18.598;2023-02-01T15:59:24;2.16;93.37
70271;SHT31;57680;54.292;18.598;2023-02-01T16:01:53;2.29;92.95
70271;SHT31;57680;54.292;18.598;2023-02-01T16:04:23;2.29;92.76
70271;SHT31;57680;54.292;18.598;2023-02-01T16:06:57;2.21;93.05
70271;SHT31;57680;54.292;18.598;2023-02-01T16:09:57;2.19;93.07
70271;SHT31;57680;54.292;18.598;2023-02-01T16:12:33;2.19;93.40
70271;SHT31;57680;54.292;18.598;2023-02-01T16:15:03;2.19;93.46
70271;SHT31;57680;54.292;18.598;2023-02-01T16:17:29;2.14;93.78
70271;SHT31;57680;54.292;18.598;2023-02-01T16:19:54;2.21;93.75
70271;SHT31;57680;54.292;18.598;2023-02-01T16:22:20;2.24;93.55
70271;SHT31;57680;54.292;18.598;2023-02-01T16:24:46;2.24;93.49
70271;SHT31;57680;54.292;18.598;2023-02-01T16:27:11;2.21;93.27
70271;SHT31;57680;54.292;18.598;2023-02-01T16:29:37;2.24;93.84
70271;SHT31;57680;54.292;18.598;2023-02-01T16:32:02;2.30;93.47
70271;SHT31;57680;54.292;18.598;2023-02-01T16:34:29;2.24;93.54
70271;SHT31;57680;54.292;18.598;2023-02-01T16:36:54;2.17;93.42
70271;SHT31;57680;54.292;18.598;2023-02-01T16:39:22;2.20;93.87
70271;SHT31;57680;54.292;18.598;2023-02-01T16:41:48;2.24;93.55
70271;SHT31;57680;54.292;18.598;2023-02-01T16:44:14;2.26;93.76
70271;SHT31;57680;54.292;18.598;2023-02-01T16:46:41;2.42;92.72
70271;SHT31;57680;54.292;18.598;2023-02-01T16:49:21;2.48;92.57
70271;SHT31;57680;54.292;18.598;2023-02-01T16:51:48;2.45;92.23
70271;SHT31;57680;54.292;18.598;2023-02-01T16:54:14;2.47;92.32
70271;SHT31;57680;54.292;18.598;2023-02-01T16:56:41;2.52;92.50
70271;SHT31;57680;54.292;18.598;2023-02-01T16:59:07;2.57;92.35
70271;SHT31;57680;54.292;18.598;2023-02-01T17:01:34;2.62;92.58
70271;SHT31;57680;54.292;18.598;2023-02-01T17:03:59;2.68;91.90
70271;SHT31;57680;54.292;18.598;2023-02-01T17:06:26;2.74;91.82
70271;SHT31;57680;54.292;18.598;2023-02-01T17:08:54;2.75;91.69
70271;SHT31;57680;54.292;18.598;2023-02-01T17:11:20;2.87;91.87
70271;SHT31;57680;54.292;18.598;2023-02-01T17:13:46;2.92;91.88
70271;SHT31;57680;54.292;18.598;2023-02-01T17:18:47;2.99;91.34
70271;SHT31;57680;54.292;18.598;2023-02-01T17:21:15;2.98;91.23
70271;SHT31;57680;54.292;18.598;2023-02-01T17:23:41;3.02;90.98
70271;SHT31;57680;54.292;18.598;2023-02-01T17:26:09;2.95;90.69
70271;SHT31;57680;54.292;18.598;2023-02-01T17:28:34;2.87;90.73
70271;SHT31;57680;54.292;18.598;2023-02-01T17:31:00;2.84;90.88
70271;SHT31;57680;54.292;18.598;2023-02-01T17:33:30;2.85;90.82
70271;SHT31;57680;54.292;18.598;2023-02-01T17:35:56;2.81;91.13
70271;SHT31;57680;54.292;18.598;2023-02-01T17:38:22;2.91;91.09
70271;SHT31;57680;54.292;18.598;2023-02-01T17:40:48;2.88;91.05
70271;SHT31;57680;54.292;18.598;2023-02-01T17:43:20;2.93;91.08
70271;SHT31;57680;54.292;18.598;2023-02-01T17:45:51;2.96;90.67
70271;SHT31;57680;54.292;18.598;2023-02-01T17:48:18;3.03;90.63
70271;SHT31;57680;54.292;18.598;2023-02-01T17:50:45;3.02;90.61
70271;SHT31;57680;54.292;18.598;2023-02-01T17:53:12;2.99;90.48
70271;SHT31;57680;54.292;18.598;2023-02-01T17:55:41;2.99;90.88
70271;SHT31;57680;54.292;18.598;2023-02-01T17:58:12;2.89;90.75
70271;SHT31;57680;54.292;18.598;2023-02-01T18:00:39;2.93;90.95
70271;SHT31;57680;54.292;18.598;2023-02-01T18:03:04;2.92;91.15
70271;SHT31;57680;54.292;18.598;2023-02-01T18:05:40;2.96;91.21
70271;SHT31;57680;54.292;18.598;2023-02-01T18:08:07;2.95;91.59
70271;SHT31;57680;54.292;18.598;2023-02-01T18:10:33;2.98;91.77
70271;SHT31;57680;54.292;18.598;2023-02-01T18:13:00;2.98;91.88
70271;SHT31;57680;54.292;18.598;2023-02-01T18:15:26;2.99;92.01
70271;SHT31;57680;54.292;18.598;2023-02-01T18:17:52;3.02;91.94
70271;SHT31;57680;54.292;18.598;2023-02-01T18:20:23;2.96;92.16
70271;SHT31;57680;54.292;18.598;2023-02-01T18:22:49;2.99;92.04
70271;SHT31;57680;54.292;18.598;2023-02-01T18:25:21;2.98;92.02
70271;SHT31;57680;54.292;18.598;2023-02-01T18:27:48;2.93;91.94
70271;SHT31;57680;54.292;18.598;2023-02-01T18:30:15;2.87;91.99
70271;SHT31;57680;54.292;18.598;2023-02-01T18:32:42;2.81;91.85
70271;SHT31;57680;54.292;18.598;2023-02-01T18:35:18;2.77;92.05